JST777 YPAD-YMML
Flight info
| Callsign | JST777 |
|---|---|
| Flight time | 1h 0m |
| Altitude | 35000 |
| Route | AD V255 BENDO Y12 ARBEY H119 ML |
| Aircraft | A321/M-SDE3FGHIRWY/LB1 |
Departure
| Time | 2026-05-04 05:36 |
|---|---|
| Airport | Adelaide International Airport (YPAD) |
Arrival
| Time | 2026-05-04 06:36 |
|---|---|
| Airport | Melbourne Airport (YMML) |
| Time | Latitude | Longitude | Altitude | Speed | Heading |
|---|---|---|---|---|---|
| 2026-05-04 05:10 | -34.94115 | 138.53597 | 24 ft | 0 kts | 320° |
| 2026-05-04 05:11 | -34.94116 | 138.53597 | 25 ft | 0 kts | 320° |
| 2026-05-04 05:13 | -34.94116 | 138.53598 | 25 ft | 0 kts | 320° |
| 2026-05-04 05:22 | -34.94117 | 138.53598 | 24 ft | 0 kts | 320° |
| 2026-05-04 05:24 | -34.94117 | 138.53599 | 22 ft | 0 kts | 320° |
| 2026-05-04 05:29 | -34.94122 | 138.53605 | 21 ft | 4 kts | 332° |
| 2026-05-04 05:29 | -34.94146 | 138.53621 | 22 ft | 4 kts | 334° |
| 2026-05-04 05:29 | -34.94171 | 138.53632 | 21 ft | 3 kts | 350° |
| 2026-05-04 05:29 | -34.94175 | 138.53633 | 21 ft | 4 kts | 351° |
| 2026-05-04 05:33 | -34.94120 | 138.53734 | 21 ft | 11 kts | 56° |
| 2026-05-04 05:33 | -34.94071 | 138.53812 | 22 ft | 12 kts | 50° |
| 2026-05-04 05:33 | -34.94011 | 138.53895 | 23 ft | 13 kts | 48° |
| 2026-05-04 05:33 | -34.93950 | 138.53981 | 23 ft | 13 kts | 51° |
| 2026-05-04 05:34 | -34.93892 | 138.54077 | 21 ft | 15 kts | 68° |
| 2026-05-04 05:34 | -34.93940 | 138.54186 | 20 ft | 16 kts | 140° |
| 2026-05-04 05:34 | -34.94027 | 138.54272 | 22 ft | 16 kts | 141° |
| 2026-05-04 05:34 | -34.94098 | 138.54275 | 23 ft | 8 kts | 220° |
| 2026-05-04 05:35 | -34.94110 | 138.54260 | 22 ft | 0 kts | 229° |
| 2026-05-04 05:35 | -34.94236 | 138.54076 | 23 ft | 65 kts | 230° |
| 2026-05-04 05:35 | -34.94668 | 138.53447 | 21 ft | 126 kts | 230° |
| 2026-05-04 05:36 | -34.95309 | 138.52504 | 152 ft | 160 kts | 232° |
| 2026-05-04 05:36 | -34.96051 | 138.51439 | 663 ft | 165 kts | 231° |
| 2026-05-04 05:36 | -34.96795 | 138.50362 | 1322 ft | 166 kts | 231° |
| 2026-05-04 05:36 | -34.97535 | 138.49292 | 2004 ft | 166 kts | 230° |
| 2026-05-04 05:37 | -34.98313 | 138.48187 | 2349 ft | 180 kts | 230° |
| 2026-05-04 05:37 | -34.99177 | 138.46953 | 2536 ft | 203 kts | 230° |
| 2026-05-04 05:37 | -35.00147 | 138.45543 | 2697 ft | 230 kts | 231° |
| 2026-05-04 05:38 | -35.02258 | 138.42464 | 4114 ft | 241 kts | 227° |
| 2026-05-04 05:38 | -35.03693 | 138.41395 | 4854 ft | 251 kts | 196° |
| 2026-05-04 05:38 | -35.05460 | 138.41531 | 5588 ft | 265 kts | 163° |
| 2026-05-04 05:38 | -35.07095 | 138.42702 | 6223 ft | 280 kts | 146° |
| 2026-05-04 05:39 | -35.08538 | 138.44352 | 6954 ft | 286 kts | 137° |
| 2026-05-04 05:39 | -35.10351 | 138.48761 | 8371 ft | 302 kts | 104° |
| 2026-05-04 05:39 | -35.10523 | 138.51334 | 9132 ft | 307 kts | 89° |
| 2026-05-04 05:40 | -35.10236 | 138.56630 | 10368 ft | 322 kts | 87° |
| 2026-05-04 05:40 | -35.10050 | 138.59448 | 10553 ft | 344 kts | 87° |
| 2026-05-04 05:40 | -35.09852 | 138.62447 | 10735 ft | 364 kts | 87° |
| 2026-05-04 05:41 | -35.09651 | 138.65574 | 11216 ft | 373 kts | 87° |
| 2026-05-04 05:41 | -35.09450 | 138.68759 | 11741 ft | 380 kts | 88° |
| 2026-05-04 05:41 | -35.09252 | 138.71981 | 12419 ft | 382 kts | 88° |
| 2026-05-04 05:41 | -35.09048 | 138.75224 | 13078 ft | 385 kts | 88° |
| 2026-05-04 05:42 | -35.08840 | 138.78501 | 13721 ft | 389 kts | 88° |
| 2026-05-04 05:42 | -35.08626 | 138.81812 | 14300 ft | 392 kts | 88° |
| 2026-05-04 05:42 | -35.08407 | 138.85144 | 14827 ft | 396 kts | 88° |
| 2026-05-04 05:42 | -35.08186 | 138.88496 | 15393 ft | 400 kts | 88° |
| 2026-05-04 05:43 | -35.07961 | 138.91897 | 15955 ft | 403 kts | 88° |
| 2026-05-04 05:43 | -35.07737 | 138.95280 | 16521 ft | 407 kts | 88° |
| 2026-05-04 05:43 | -35.07507 | 138.98744 | 17074 ft | 411 kts | 89° |
| 2026-05-04 05:45 | -35.06689 | 139.18774 | 19972 ft | 422 kts | 105° |
| 2026-05-04 05:45 | -35.07439 | 139.22211 | 20476 ft | 417 kts | 116° |
| 2026-05-04 05:47 | -35.18978 | 139.42287 | 23822 ft | 419 kts | 134° |
| 2026-05-04 05:47 | -35.20737 | 139.45141 | 24162 ft | 422 kts | 133° |
| 2026-05-04 05:47 | -35.22511 | 139.48020 | 24485 ft | 425 kts | 133° |
| 2026-05-04 05:48 | -35.24226 | 139.50995 | 24797 ft | 433 kts | 127° |
| 2026-05-04 05:48 | -35.25601 | 139.54328 | 25114 ft | 443 kts | 121° |
| 2026-05-04 05:48 | -35.26882 | 139.57774 | 25397 ft | 447 kts | 120° |
| 2026-05-04 05:48 | -35.28172 | 139.61250 | 25697 ft | 450 kts | 120° |
| 2026-05-04 05:49 | -35.29470 | 139.64756 | 25998 ft | 454 kts | 120° |
| 2026-05-04 05:49 | -35.30759 | 139.68236 | 26293 ft | 457 kts | 120° |
| 2026-05-04 05:49 | -35.32077 | 139.71788 | 26586 ft | 460 kts | 120° |
| 2026-05-04 05:49 | -35.33407 | 139.75366 | 26901 ft | 463 kts | 120° |
| 2026-05-04 05:51 | -35.42941 | 140.01197 | 28766 ft | 486 kts | 120° |
| 2026-05-04 05:51 | -35.44335 | 140.04988 | 29024 ft | 489 kts | 120° |
| 2026-05-04 05:52 | -35.45735 | 140.08803 | 29295 ft | 492 kts | 120° |
| 2026-05-04 05:52 | -35.47145 | 140.12644 | 29570 ft | 495 kts | 120° |
| 2026-05-04 05:52 | -35.48562 | 140.16507 | 29843 ft | 497 kts | 120° |
| 2026-05-04 05:52 | -35.49985 | 140.20388 | 30164 ft | 499 kts | 120° |
| 2026-05-04 05:53 | -35.51383 | 140.24223 | 30488 ft | 499 kts | 119° |
| 2026-05-04 05:54 | -35.61291 | 140.51501 | 32544 ft | 502 kts | 118° |
| 2026-05-04 05:55 | -35.62707 | 140.55416 | 32835 ft | 502 kts | 118° |
| 2026-05-04 05:55 | -35.64125 | 140.59343 | 33131 ft | 502 kts | 118° |
| 2026-05-04 05:55 | -35.65536 | 140.63264 | 33421 ft | 502 kts | 118° |
| 2026-05-04 05:55 | -35.66947 | 140.67187 | 33708 ft | 503 kts | 117° |
| 2026-05-04 05:56 | -35.68365 | 140.71129 | 33947 ft | 504 kts | 117° |
| 2026-05-04 05:56 | -35.69782 | 140.75065 | 34177 ft | 504 kts | 117° |
| 2026-05-04 05:56 | -35.71204 | 140.79016 | 34393 ft | 505 kts | 117° |
| 2026-05-04 05:56 | -35.72625 | 140.82976 | 34598 ft | 505 kts | 117° |
| 2026-05-04 05:57 | -35.74044 | 140.86944 | 34811 ft | 506 kts | 117° |
| 2026-05-04 05:57 | -35.75461 | 140.90915 | 34972 ft | 508 kts | 116° |
| 2026-05-04 05:57 | -35.78299 | 140.98891 | 34998 ft | 517 kts | 116° |
| 2026-05-04 05:58 | -35.81218 | 141.07072 | 34993 ft | 526 kts | 116° |
| 2026-05-04 05:58 | -35.84169 | 141.15369 | 34988 ft | 529 kts | 116° |
| 2026-05-04 05:59 | -35.87106 | 141.23680 | 34988 ft | 528 kts | 116° |
| 2026-05-04 05:59 | -35.90032 | 141.31980 | 34983 ft | 528 kts | 116° |
| 2026-05-04 06:00 | -35.92962 | 141.40291 | 34995 ft | 529 kts | 115° |
| 2026-05-04 06:00 | -35.95886 | 141.48631 | 34990 ft | 530 kts | 115° |
| 2026-05-04 06:01 | -35.98807 | 141.56996 | 34989 ft | 530 kts | 115° |
| 2026-05-04 06:03 | -36.10490 | 141.90541 | 34986 ft | 532 kts | 114° |
| 2026-05-04 06:05 | -36.23559 | 142.28568 | 34979 ft | 535 kts | 114° |
| 2026-05-04 06:06 | -36.26448 | 142.37061 | 34968 ft | 535 kts | 113° |
| 2026-05-04 06:06 | -36.29334 | 142.45573 | 34963 ft | 536 kts | 113° |
| 2026-05-04 06:07 | -36.32222 | 142.54084 | 34962 ft | 536 kts | 113° |
| 2026-05-04 06:07 | -36.35092 | 142.62558 | 34954 ft | 537 kts | 113° |
| 2026-05-04 06:08 | -36.37984 | 142.71107 | 34955 ft | 537 kts | 113° |
| 2026-05-04 06:08 | -36.40869 | 142.79674 | 34964 ft | 538 kts | 112° |
| 2026-05-04 06:09 | -36.43256 | 142.86792 | 34951 ft | 538 kts | 112° |
| 2026-05-04 06:11 | -36.54702 | 143.21260 | 34959 ft | 540 kts | 112° |
| 2026-05-04 06:13 | -36.66140 | 143.56026 | 31191 ft | 540 kts | 110° |
| 2026-05-04 06:14 | -36.74352 | 143.81221 | 28031 ft | 504 kts | 110° |
| 2026-05-04 06:14 | -36.75654 | 143.85261 | 27514 ft | 498 kts | 110° |
| 2026-05-04 06:15 | -36.76918 | 143.89188 | 27007 ft | 492 kts | 110° |
| 2026-05-04 06:15 | -36.78179 | 143.93102 | 26249 ft | 480 kts | 110° |
| 2026-05-04 06:15 | -36.79413 | 143.96927 | 25183 ft | 470 kts | 111° |
| 2026-05-04 06:15 | -36.80615 | 144.00661 | 24204 ft | 458 kts | 111° |
| 2026-05-04 06:16 | -36.81790 | 144.04312 | 23196 ft | 447 kts | 111° |
| 2026-05-04 06:16 | -36.82937 | 144.07874 | 22051 ft | 438 kts | 112° |
| 2026-05-04 06:16 | -36.84058 | 144.11362 | 21249 ft | 424 kts | 112° |
| 2026-05-04 06:16 | -36.85116 | 144.14667 | 20959 ft | 398 kts | 112° |
| 2026-05-04 06:17 | -36.86118 | 144.17811 | 20515 ft | 383 kts | 111° |
| 2026-05-04 06:17 | -36.87099 | 144.20897 | 20050 ft | 382 kts | 112° |
| 2026-05-04 06:17 | -36.88079 | 144.23981 | 19584 ft | 381 kts | 112° |
| 2026-05-04 06:17 | -36.89058 | 144.27051 | 19129 ft | 381 kts | 111° |
| 2026-05-04 06:18 | -36.90040 | 144.30121 | 18659 ft | 380 kts | 111° |
| 2026-05-04 06:18 | -36.91019 | 144.33185 | 18192 ft | 380 kts | 112° |
| 2026-05-04 06:18 | -36.92006 | 144.36242 | 17671 ft | 378 kts | 114° |
| 2026-05-04 06:20 | -37.03102 | 144.53422 | 14659 ft | 355 kts | 133° |
| 2026-05-04 06:20 | -37.04697 | 144.55716 | 14258 ft | 353 kts | 133° |
| 2026-05-04 06:21 | -37.11106 | 144.64917 | 12542 ft | 347 kts | 132° |
| 2026-05-04 06:21 | -37.12689 | 144.67193 | 12114 ft | 346 kts | 132° |
| 2026-05-04 06:22 | -37.14267 | 144.69464 | 11704 ft | 345 kts | 132° |
| 2026-05-04 06:22 | -37.15974 | 144.71546 | 11289 ft | 340 kts | 145° |
| 2026-05-04 06:25 | -37.43695 | 144.79404 | 7815 ft | 307 kts | 177° |
| 2026-05-04 06:25 | -37.45778 | 144.79526 | 7577 ft | 300 kts | 190° |
| 2026-05-04 06:26 | -37.47799 | 144.79055 | 7354 ft | 292 kts | 204° |
| 2026-05-04 06:26 | -37.49714 | 144.78162 | 7127 ft | 289 kts | 208° |
| 2026-05-04 06:26 | -37.51596 | 144.77266 | 6904 ft | 289 kts | 207° |
| 2026-05-04 06:26 | -37.53448 | 144.76390 | 6691 ft | 288 kts | 207° |
| 2026-05-04 06:27 | -37.61168 | 144.73654 | 5779 ft | 294 kts | 189° |
| 2026-05-04 06:28 | -37.63179 | 144.73516 | 5554 ft | 294 kts | 189° |
| 2026-05-04 06:28 | -37.65222 | 144.73374 | 5331 ft | 293 kts | 189° |
| 2026-05-04 06:28 | -37.67258 | 144.73230 | 5105 ft | 292 kts | 189° |
| 2026-05-04 06:28 | -37.69283 | 144.73086 | 4881 ft | 291 kts | 189° |
| 2026-05-04 06:29 | -37.71296 | 144.72954 | 4673 ft | 287 kts | 187° |
| 2026-05-04 06:29 | -37.73262 | 144.72900 | 4534 ft | 278 kts | 186° |
| 2026-05-04 06:29 | -37.75173 | 144.72884 | 4299 ft | 273 kts | 186° |
| 2026-05-04 06:29 | -37.77052 | 144.72875 | 4054 ft | 268 kts | 186° |
| 2026-05-04 06:30 | -37.78923 | 144.72871 | 3695 ft | 270 kts | 183° |
| 2026-05-04 06:30 | -37.80745 | 144.73369 | 3375 ft | 275 kts | 160° |
| 2026-05-04 06:30 | -37.82348 | 144.74685 | 3069 ft | 274 kts | 135° |
| 2026-05-04 06:30 | -37.83457 | 144.76584 | 2841 ft | 263 kts | 111° |
| 2026-05-04 06:31 | -37.84034 | 144.78668 | 2742 ft | 242 kts | 94° |
| 2026-05-04 06:31 | -37.84151 | 144.80697 | 2611 ft | 221 kts | 77° |
| 2026-05-04 06:31 | -37.83951 | 144.82546 | 2530 ft | 207 kts | 72° |
| 2026-05-04 06:31 | -37.83734 | 144.84281 | 2494 ft | 193 kts | 68° |
| 2026-05-04 06:32 | -37.83127 | 144.85675 | 2491 ft | 174 kts | 34° |
| 2026-05-04 06:33 | -37.76444 | 144.85568 | 1803 ft | 124 kts | 348° |
| 2026-05-04 06:34 | -37.75595 | 144.85411 | 1698 ft | 123 kts | 348° |
| 2026-05-04 06:34 | -37.74743 | 144.85254 | 1583 ft | 123 kts | 347° |
| 2026-05-04 06:34 | -37.73894 | 144.85096 | 1391 ft | 123 kts | 350° |
| 2026-05-04 06:34 | -37.73045 | 144.84939 | 1224 ft | 123 kts | 353° |
| 2026-05-04 06:35 | -37.72191 | 144.84780 | 1065 ft | 128 kts | 354° |
| 2026-05-04 06:36 | -37.66930 | 144.83793 | 384 ft | 46 kts | 352° |
| 2026-05-04 06:37 | -37.66655 | 144.83746 | 390 ft | 28 kts | 353° |
| 2026-05-04 06:37 | -37.66527 | 144.83798 | 391 ft | 17 kts | 52° |
| 2026-05-04 06:37 | -37.66508 | 144.83852 | 390 ft | 0 kts | 78° |
| 2026-05-04 06:38 | -37.66508 | 144.83868 | 389 ft | 7 kts | 91° |
| 2026-05-04 06:40 | -37.67153 | 144.84263 | 372 ft | 18 kts | 170° |
| 2026-05-04 06:40 | -37.67267 | 144.84285 | 369 ft | 17 kts | 171° |
| 2026-05-04 06:40 | -37.67384 | 144.84306 | 365 ft | 17 kts | 172° |
| 2026-05-04 06:40 | -37.67506 | 144.84329 | 366 ft | 18 kts | 171° |
| 2026-05-04 06:41 | -37.67633 | 144.84352 | 359 ft | 16 kts | 172° |
| 2026-05-04 06:41 | -37.67743 | 144.84374 | 358 ft | 16 kts | 171° |
| 2026-05-04 06:41 | -37.67797 | 144.84465 | 357 ft | 14 kts | 84° |
| 2026-05-04 06:41 | -37.67767 | 144.84573 | 356 ft | 13 kts | 64° |
| 2026-05-04 06:42 | -37.67734 | 144.84675 | 350 ft | 13 kts | 80° |
| 2026-05-04 06:42 | -37.67719 | 144.84787 | 349 ft | 11 kts | 81° |
| 2026-05-04 06:42 | -37.67691 | 144.84810 | 351 ft | 4 kts | 359° |
| 2026-05-04 06:44 | -37.67642 | 144.84801 | 355 ft | 0 kts | 351° |
| 2026-05-04 06:46 | -37.67642 | 144.84802 | 355 ft | 0 kts | 351° |
| 2026-05-04 06:46 | -37.67642 | 144.84801 | 355 ft | 0 kts | 351° |
| 2026-05-04 06:46 | -37.67642 | 144.84802 | 355 ft | 0 kts | 351° |
| 2026-05-04 06:50 | -37.67643 | 144.84802 | 355 ft | 0 kts | 351° |